createdAt,value
2024-05-09T00:02:10.141Z,-0.08
2024-05-09T00:04:41.191Z,-0.12
2024-05-09T00:07:12.055Z,-0.19
2024-05-09T00:09:42.798Z,-0.17
2024-05-09T00:12:16.323Z,-0.19
2024-05-09T00:14:47.124Z,-0.27
2024-05-09T00:17:17.945Z,-0.29
2024-05-09T00:19:48.793Z,-0.29
2024-05-09T00:22:19.596Z,-0.37
2024-05-09T00:24:50.349Z,-0.35
2024-05-09T00:27:23.800Z,-0.35
2024-05-09T00:29:54.648Z,-0.37
2024-05-09T00:32:25.512Z,-0.40
2024-05-09T00:34:56.385Z,-0.41
2024-05-09T00:37:27.270Z,-0.37
2024-05-09T00:39:58.060Z,-0.41
2024-05-09T00:42:31.845Z,-0.42
2024-05-09T00:45:02.633Z,-0.44
2024-05-09T00:47:34.858Z,-0.45
2024-05-09T00:50:12.623Z,-0.46
2024-05-09T00:52:48.482Z,-0.60
2024-05-09T00:55:20.641Z,-0.57
2024-05-09T00:57:55.161Z,-0.60
2024-05-09T01:00:32.124Z,-0.62
2024-05-09T01:03:11.225Z,-0.63
2024-05-09T01:05:44.044Z,-0.65
2024-05-09T01:08:15.249Z,-0.68
2024-05-09T01:10:47.998Z,-0.73
2024-05-09T01:13:22.185Z,-0.83
2024-05-09T01:15:54.216Z,-0.81
2024-05-09T01:18:25.146Z,-0.80
2024-05-09T01:20:56.187Z,-0.80
2024-05-09T01:23:29.722Z,-0.82
2024-05-09T01:26:00.635Z,-0.93
2024-05-09T01:28:31.502Z,-0.88
2024-05-09T01:31:02.360Z,-0.89
2024-05-09T01:33:33.461Z,-0.93
2024-05-09T01:36:04.503Z,-0.95
2024-05-09T01:38:38.116Z,-0.97
2024-05-09T01:41:09.385Z,-1.03
2024-05-09T01:43:40.497Z,-1.05
2024-05-09T01:46:17.443Z,-1.05
2024-05-09T01:48:48.754Z,-1.09
2024-05-09T01:51:19.579Z,-1.11
2024-05-09T01:53:53.043Z,-1.17
2024-05-09T01:56:23.862Z,-1.27
2024-05-09T01:58:54.549Z,-1.33
2024-05-09T02:01:25.470Z,-1.22
2024-05-09T02:03:56.502Z,-1.24
2024-05-09T02:06:27.386Z,-1.27
2024-05-09T02:09:00.893Z,-1.39
2024-05-09T02:11:31.825Z,-1.45
2024-05-09T02:14:02.856Z,-1.32
2024-05-09T02:16:33.782Z,-1.32
2024-05-09T02:19:04.738Z,-1.32
2024-05-09T02:21:35.676Z,-1.32
2024-05-09T02:24:09.581Z,-1.35
2024-05-09T02:26:40.367Z,-1.31
2024-05-09T02:29:11.498Z,-1.26
2024-05-09T02:31:42.310Z,-1.26
2024-05-09T02:34:13.225Z,-1.17
2024-05-09T02:36:44.018Z,-1.13
2024-05-09T02:39:14.852Z,-1.07
2024-05-09T02:41:45.580Z,-1.00
2024-05-09T02:44:14.039Z,-0.92
2024-05-09T02:46:44.749Z,-0.84
2024-05-09T02:49:12.926Z,-0.76
2024-05-09T02:51:43.718Z,-0.66
2024-05-09T02:54:14.435Z,-0.52
2024-05-09T02:56:45.212Z,-0.40
2024-05-09T02:59:13.355Z,-0.33
2024-05-09T03:01:44.246Z,-0.17
2024-05-09T03:04:12.449Z,0.02
2024-05-09T03:06:44.122Z,0.17
2024-05-09T03:09:14.974Z,0.33
2024-05-09T03:11:46.175Z,0.52
2024-05-09T03:14:17.120Z,0.71
2024-05-09T03:16:48.160Z,0.88
2024-05-09T03:19:17.222Z,1.05
2024-05-09T03:21:47.999Z,1.16
2024-05-09T03:24:18.792Z,1.33
2024-05-09T03:26:49.986Z,1.61
2024-05-09T03:29:18.161Z,1.76
2024-05-09T03:31:48.961Z,1.90
2024-05-09T03:34:17.137Z,2.10
2024-05-09T03:36:48.418Z,2.25
2024-05-09T03:39:21.861Z,2.46
2024-05-09T03:41:52.614Z,2.54
2024-05-09T03:44:23.795Z,2.71
2024-05-09T03:46:52.123Z,2.99
2024-05-09T03:49:22.986Z,3.20
2024-05-09T03:51:51.294Z,3.35
2024-05-09T03:54:24.930Z,3.37
2024-05-09T03:56:54.552Z,3.56
2024-05-09T03:59:25.322Z,3.74
2024-05-09T04:01:53.552Z,3.87
2024-05-09T04:04:24.358Z,4.16
2024-05-09T04:06:52.527Z,4.31
2024-05-09T04:09:25.929Z,4.40
2024-05-09T04:11:54.116Z,4.54
2024-05-09T04:14:24.975Z,4.66
2024-05-09T04:16:53.172Z,4.77
2024-05-09T04:19:24.033Z,5.15
2024-05-09T04:21:52.302Z,5.31
2024-05-09T04:24:25.672Z,5.48
2024-05-09T04:26:53.778Z,5.55
2024-05-09T04:29:24.817Z,5.79
2024-05-09T04:31:53.296Z,5.87
2024-05-09T04:34:24.190Z,5.95
2024-05-09T04:36:52.951Z,6.29
2024-05-09T04:39:26.327Z,6.53
2024-05-09T04:41:54.495Z,6.65
2024-05-09T04:44:25.724Z,6.82
2024-05-09T04:46:53.860Z,6.96
2024-05-09T04:49:24.700Z,7.22
2024-05-09T04:51:52.897Z,7.28
2024-05-09T04:54:34.108Z,7.48
2024-05-09T04:57:04.842Z,7.95
2024-05-09T04:59:36.510Z,8.31
2024-05-09T05:02:04.937Z,8.34
2024-05-09T05:04:35.731Z,8.29
2024-05-09T05:07:03.912Z,8.44
2024-05-09T05:09:37.275Z,8.67
2024-05-09T05:12:26.009Z,8.78
2024-05-09T05:14:56.809Z,8.89
2024-05-09T05:17:27.673Z,8.85
2024-05-09T05:19:56.967Z,8.61
2024-05-09T05:22:27.740Z,8.34
2024-05-09T05:24:58.615Z,8.09
2024-05-09T05:27:31.111Z,7.77
2024-05-09T05:29:59.198Z,7.56
2024-05-09T05:32:30.661Z,7.37
2024-05-09T05:34:58.898Z,7.13
2024-05-09T05:37:29.587Z,6.97
2024-05-09T05:40:00.424Z,6.84
2024-05-09T05:42:31.161Z,6.71
2024-05-09T05:45:02.299Z,6.56
2024-05-09T05:47:31.603Z,6.38
2024-05-09T05:50:02.992Z,6.31
2024-05-09T05:52:31.885Z,6.13
2024-05-09T05:55:05.272Z,6.14
2024-05-09T05:57:34.153Z,6.05
2024-05-09T06:00:09.452Z,6.02
2024-05-09T06:02:41.868Z,5.95
2024-05-09T06:05:13.535Z,5.91
2024-05-09T06:07:41.775Z,5.87
2024-05-09T06:10:21.385Z,5.83
2024-05-09T06:12:53.819Z,5.77
2024-05-09T06:15:24.524Z,5.73
2024-05-09T06:17:52.752Z,5.66
2024-05-09T06:20:31.052Z,5.74
2024-05-09T06:23:03.534Z,5.75
2024-05-09T06:25:37.208Z,5.72
2024-05-09T06:28:06.037Z,5.82
2024-05-09T06:30:40.629Z,5.94
2024-05-09T06:33:13.816Z,6.06
2024-05-09T06:35:46.986Z,6.28
2024-05-09T06:38:15.179Z,6.53
2024-05-09T06:40:48.676Z,6.78
2024-05-09T06:43:19.143Z,6.99
2024-05-09T06:45:53.003Z,7.35
2024-05-09T06:48:22.575Z,7.66
2024-05-09T06:50:54.031Z,7.89
2024-05-09T06:53:23.177Z,8.06
2024-05-09T06:55:56.706Z,8.29
2024-05-09T06:58:24.868Z,8.57
2024-05-09T07:00:55.897Z,9.04
2024-05-09T07:03:24.379Z,9.24
2024-05-09T07:05:55.182Z,9.59
2024-05-09T07:08:23.404Z,9.74
2024-05-09T07:10:56.907Z,9.96
2024-05-09T07:13:25.173Z,9.97
2024-05-09T07:15:55.858Z,10.00
2024-05-09T07:18:24.068Z,10.07
2024-05-09T07:20:54.839Z,10.09
2024-05-09T07:23:23.099Z,10.00
2024-05-09T07:25:57.936Z,9.92
2024-05-09T07:28:26.428Z,10.32
2024-05-09T07:30:57.130Z,10.44
2024-05-09T07:33:25.404Z,10.50
2024-05-09T07:35:56.362Z,10.51
2024-05-09T07:38:24.660Z,10.54
2024-05-09T07:40:58.197Z,10.73
2024-05-09T07:43:28.165Z,10.88
2024-05-09T07:46:23.079Z,11.09
2024-05-09T07:53:54.882Z,10.98
2024-05-09T07:56:31.050Z,11.21
2024-05-09T07:58:59.803Z,11.37
2024-05-09T08:01:30.603Z,11.39
2024-05-09T08:03:58.872Z,11.44
2024-05-09T08:06:29.970Z,11.40
2024-05-09T08:09:03.011Z,11.58
2024-05-09T08:11:41.261Z,11.68
2024-05-09T08:14:09.391Z,11.81
2024-05-09T08:16:40.074Z,12.00
2024-05-09T08:19:08.173Z,12.10
2024-05-09T08:21:39.228Z,12.17
2024-05-09T08:24:07.599Z,12.12
2024-05-09T08:26:41.508Z,12.20
2024-05-09T08:29:10.620Z,12.37
2024-05-09T08:31:41.420Z,12.38
2024-05-09T08:34:09.843Z,12.28
2024-05-09T08:36:41.018Z,12.10
2024-05-09T08:39:09.369Z,11.99
2024-05-09T08:41:46.153Z,11.93
2024-05-09T08:44:14.827Z,11.74
2024-05-09T08:46:48.123Z,11.82
2024-05-09T08:49:16.991Z,11.90
2024-05-09T08:51:49.555Z,11.89
2024-05-09T08:54:18.246Z,11.86
2024-05-09T08:56:53.281Z,11.85
2024-05-09T08:59:28.262Z,11.82
2024-05-09T09:01:59.320Z,11.93
2024-05-09T09:04:28.560Z,11.98
2024-05-09T09:07:02.280Z,11.94
2024-05-09T09:09:33.198Z,12.01
2024-05-09T09:12:08.559Z,12.15
2024-05-09T09:14:38.912Z,12.31
2024-05-09T09:17:16.830Z,12.40
2024-05-09T09:19:45.237Z,12.46
2024-05-09T09:22:16.118Z,12.57
2024-05-09T09:24:44.243Z,12.61
2024-05-09T09:27:20.153Z,12.69
2024-05-09T09:29:49.176Z,12.80
2024-05-09T09:32:19.883Z,12.68
2024-05-09T09:34:50.453Z,12.73
2024-05-09T09:37:26.616Z,12.81
2024-05-09T09:39:59.363Z,12.82
2024-05-09T09:42:35.954Z,12.84
2024-05-09T09:45:05.720Z,12.77
2024-05-09T09:47:40.953Z,12.82
2024-05-09T09:50:14.444Z,12.82
2024-05-09T09:52:49.240Z,12.84
2024-05-09T09:55:18.745Z,12.94
2024-05-09T09:57:52.517Z,13.01
2024-05-09T10:00:27.430Z,12.93
2024-05-09T10:03:03.294Z,13.06
2024-05-09T10:05:33.727Z,13.08
2024-05-09T10:08:10.033Z,13.05
2024-05-09T10:10:38.485Z,13.02
2024-05-09T10:13:11.975Z,12.99
2024-05-09T10:15:46.001Z,12.87
2024-05-09T10:18:17.175Z,12.88
2024-05-09T10:20:46.761Z,12.86
2024-05-09T10:23:28.540Z,12.94
2024-05-09T10:25:58.895Z,13.06
2024-05-09T10:28:33.134Z,13.16
2024-05-09T10:31:08.676Z,13.20
2024-05-09T10:33:43.269Z,13.26
2024-05-09T10:36:14.900Z,13.18
2024-05-09T10:38:46.768Z,13.18
2024-05-09T10:41:19.490Z,13.18
2024-05-09T10:43:51.157Z,13.13
2024-05-09T10:46:22.196Z,13.21
2024-05-09T10:48:52.608Z,13.13
2024-05-09T10:51:23.640Z,13.15
2024-05-09T10:53:52.765Z,13.24
2024-05-09T10:56:23.954Z,13.28
2024-05-09T10:58:55.169Z,13.38
2024-05-09T11:01:26.299Z,13.44
2024-05-09T11:03:54.730Z,13.41
2024-05-09T11:06:26.181Z,13.46
2024-05-09T11:08:54.579Z,13.41
2024-05-09T11:11:25.810Z,13.35
2024-05-09T11:13:56.794Z,13.16
2024-05-09T11:16:27.543Z,12.99
2024-05-09T11:18:56.696Z,13.04
2024-05-09T11:21:27.764Z,13.20
2024-05-09T11:23:56.284Z,13.12
2024-05-09T11:26:29.686Z,13.01
2024-05-09T11:29:00.556Z,12.94
2024-05-09T11:31:31.596Z,13.12
2024-05-09T11:34:01.325Z,13.24
2024-05-09T11:36:32.193Z,13.36
2024-05-09T11:39:00.403Z,13.44
2024-05-09T11:41:31.472Z,13.48
2024-05-09T11:44:02.227Z,13.59
2024-05-09T11:46:32.968Z,13.78
2024-05-09T11:49:01.431Z,13.89
2024-05-09T11:51:32.219Z,13.92
2024-05-09T11:54:00.499Z,13.76
2024-05-09T11:56:31.322Z,13.81
2024-05-09T11:59:02.114Z,13.60
2024-05-09T12:01:33.039Z,13.67
2024-05-09T12:04:01.406Z,13.48
2024-05-09T12:06:32.496Z,13.37
2024-05-09T12:09:00.633Z,13.18
2024-05-09T12:11:31.413Z,13.03
2024-05-09T12:14:02.230Z,12.98
2024-05-09T12:16:33.303Z,12.91
2024-05-09T12:19:01.550Z,12.86
2024-05-09T12:21:32.310Z,12.80
2024-05-09T12:24:00.562Z,12.70
2024-05-09T12:26:31.377Z,12.41
2024-05-09T12:29:02.170Z,12.61
2024-05-09T12:31:32.922Z,12.59
2024-05-09T12:34:01.328Z,12.55
2024-05-09T12:36:32.319Z,12.70
2024-05-09T12:39:01.093Z,12.91
2024-05-09T12:41:31.782Z,12.71
2024-05-09T12:44:02.571Z,12.82
2024-05-09T12:46:33.362Z,12.76
2024-05-09T12:49:02.170Z,12.68
2024-05-09T12:51:33.802Z,12.65
2024-05-09T12:54:01.902Z,12.71
2024-05-09T12:56:33.643Z,12.79
2024-05-09T12:59:04.463Z,12.72
2024-05-09T13:01:35.353Z,12.62
2024-05-09T13:04:03.818Z,12.57
2024-05-09T13:06:35.133Z,12.56
2024-05-09T13:09:03.319Z,12.55
2024-05-09T13:11:34.027Z,12.48
2024-05-09T13:14:04.849Z,12.33
2024-05-09T13:16:35.826Z,12.24
2024-05-09T13:19:04.077Z,12.13
2024-05-09T13:21:34.849Z,12.20
2024-05-09T13:24:03.064Z,12.11
2024-05-09T13:26:34.083Z,12.10
2024-05-09T13:29:05.155Z,12.11
2024-05-09T13:31:35.902Z,12.24
2024-05-09T13:34:04.238Z,12.23
2024-05-09T13:36:35.110Z,12.24
2024-05-09T13:39:04.042Z,12.31
2024-05-09T13:41:34.803Z,12.57
2024-05-09T13:44:06.007Z,12.54
2024-05-09T13:46:37.340Z,12.44
2024-05-09T13:49:07.104Z,12.64
2024-05-09T13:51:39.332Z,12.83
2024-05-09T13:54:07.591Z,12.85
2024-05-09T13:56:43.221Z,12.79
2024-05-09T13:59:14.314Z,12.70
2024-05-09T14:01:45.504Z,12.60
2024-05-09T14:04:13.978Z,12.52
2024-05-09T14:06:45.195Z,12.62
2024-05-09T14:09:13.495Z,12.58
2024-05-09T14:11:44.238Z,12.66
2024-05-09T14:14:15.147Z,12.65
2024-05-09T14:16:49.364Z,12.62
2024-05-09T14:19:17.885Z,12.55
2024-05-09T14:21:48.616Z,12.34
2024-05-09T14:24:16.891Z,12.25
2024-05-09T14:26:48.839Z,12.18
2024-05-09T14:29:19.754Z,12.21
2024-05-09T14:31:50.771Z,12.15
2024-05-09T14:34:19.084Z,12.01
2024-05-09T14:39:37.729Z,12.18
2024-05-09T14:42:08.803Z,12.15
2024-05-09T14:44:39.617Z,12.22
2024-05-09T14:47:10.833Z,12.26
2024-05-09T14:49:39.463Z,12.13
2024-05-09T14:52:10.620Z,12.25
2024-05-09T14:54:39.044Z,12.24
2024-05-09T14:57:09.974Z,12.31
2024-05-09T14:59:40.913Z,12.32
2024-05-09T15:02:12.693Z,12.29
2024-05-09T15:04:43.743Z,12.10
2024-05-09T15:07:12.058Z,12.10
2024-05-09T15:09:42.818Z,12.02
2024-05-09T15:12:11.019Z,11.87
2024-05-09T15:14:44.641Z,11.72
2024-05-09T15:17:13.024Z,11.57
2024-05-09T15:19:44.054Z,11.54
2024-05-09T15:22:16.473Z,11.52
2024-05-09T15:24:48.570Z,11.40
2024-05-09T15:27:17.451Z,11.40
2024-05-09T15:29:50.868Z,11.27
2024-05-09T15:32:19.039Z,11.14
2024-05-09T15:34:49.770Z,10.93
2024-05-09T15:37:18.350Z,10.79
2024-05-09T15:39:49.943Z,10.68
2024-05-09T15:42:19.069Z,10.72
2024-05-09T15:44:53.220Z,10.60
2024-05-09T15:47:21.456Z,10.50
2024-05-09T15:49:52.476Z,10.36
2024-05-09T15:52:20.728Z,10.42
2024-05-09T15:54:51.444Z,10.28
2024-05-09T15:57:19.965Z,10.23
2024-05-09T15:59:53.380Z,10.02
2024-05-09T16:02:24.257Z,9.90
2024-05-09T16:04:52.642Z,9.69
2024-05-09T16:07:23.785Z,9.74
2024-05-09T16:09:52.272Z,9.65
2024-05-09T16:12:22.988Z,9.51
2024-05-09T16:14:53.767Z,9.54
2024-05-09T16:17:24.591Z,9.52
2024-05-09T16:19:52.833Z,9.52
2024-05-09T16:22:23.631Z,9.39
2024-05-09T16:24:51.904Z,9.43
2024-05-09T16:27:22.852Z,9.44
2024-05-09T16:29:53.818Z,9.46
2024-05-09T16:32:24.785Z,9.43
2024-05-09T16:34:52.914Z,9.35
2024-05-09T16:37:25.880Z,9.26
2024-05-09T16:39:58.405Z,9.29
2024-05-09T16:42:26.550Z,9.30
2024-05-09T16:44:59.963Z,9.28
2024-05-09T16:47:28.138Z,9.24
2024-05-09T16:49:59.149Z,9.19
2024-05-09T16:52:27.249Z,9.12
2024-05-09T16:54:58.007Z,8.91
2024-05-09T16:57:26.125Z,8.90
2024-05-09T16:59:59.464Z,8.80
2024-05-09T17:02:27.754Z,8.69
2024-05-09T17:04:58.575Z,8.61
2024-05-09T17:07:26.790Z,8.55
2024-05-09T17:09:57.519Z,8.40
2024-05-09T17:12:29.620Z,8.34
2024-05-09T17:15:03.207Z,8.26
2024-05-09T17:17:34.553Z,8.21
2024-05-09T17:20:10.438Z,8.17
2024-05-09T17:22:43.760Z,7.98
2024-05-09T17:25:14.717Z,8.06
2024-05-09T17:27:42.961Z,7.98
2024-05-09T17:30:28.069Z,7.94
2024-05-09T17:33:00.449Z,7.92
2024-05-09T17:35:31.246Z,7.91
2024-05-09T17:37:59.907Z,7.91
2024-05-09T17:40:34.852Z,7.88
2024-05-09T17:43:06.691Z,7.86
2024-05-09T17:45:42.334Z,7.75
2024-05-09T17:48:12.178Z,7.79
2024-05-09T17:50:43.913Z,7.73
2024-05-09T17:53:12.089Z,7.64
2024-05-09T17:55:43.263Z,7.58
2024-05-09T17:58:13.667Z,7.53
2024-05-09T18:00:47.293Z,7.35
2024-05-09T18:03:15.741Z,7.35
2024-05-09T18:05:46.653Z,7.33
2024-05-09T18:08:14.817Z,7.29
2024-05-09T18:10:45.690Z,7.24
2024-05-09T18:13:13.914Z,7.19
2024-05-09T18:15:47.855Z,7.13
2024-05-09T18:18:16.132Z,7.09
2024-05-09T18:20:47.198Z,7.03
2024-05-09T18:23:18.304Z,6.95
2024-05-09T18:25:54.740Z,6.89
2024-05-09T18:28:23.731Z,6.83
2024-05-09T18:30:57.317Z,6.79
2024-05-09T18:33:25.594Z,6.74
2024-05-09T18:35:56.380Z,6.69
2024-05-09T18:38:26.988Z,6.62
2024-05-09T18:40:58.022Z,6.56
2024-05-09T18:43:31.418Z,6.47
2024-05-09T18:46:11.877Z,6.40
2024-05-09T18:48:40.637Z,6.35
2024-05-09T18:51:12.049Z,6.25
2024-05-09T18:53:41.696Z,6.23
2024-05-09T18:56:13.596Z,6.11
2024-05-09T18:58:41.708Z,6.14
2024-05-09T19:01:15.230Z,6.06
2024-05-09T19:03:43.640Z,6.06
2024-05-09T19:06:14.546Z,6.01
2024-05-09T19:08:42.722Z,5.98
2024-05-09T19:11:13.709Z,5.94
2024-05-09T19:13:41.834Z,5.81
2024-05-09T19:16:15.276Z,5.82
2024-05-09T19:18:43.791Z,5.75
2024-05-09T19:21:14.902Z,5.67
2024-05-09T19:23:47.272Z,5.63
2024-05-09T19:26:22.923Z,5.57
2024-05-09T19:28:51.515Z,5.52
2024-05-09T19:31:25.134Z,5.39
2024-05-09T19:33:53.381Z,5.39
2024-05-09T19:36:25.841Z,5.33
2024-05-09T19:38:53.986Z,5.24
2024-05-09T19:41:25.466Z,5.20
2024-05-09T19:43:53.651Z,5.16
2024-05-09T19:46:27.064Z,5.01
2024-05-09T19:48:58.264Z,4.98
2024-05-09T19:51:26.625Z,4.94
2024-05-09T19:53:57.354Z,4.89
2024-05-09T19:56:26.503Z,4.82
2024-05-09T19:58:57.761Z,4.80
2024-05-09T20:01:28.601Z,4.68
2024-05-09T20:04:00.065Z,4.72
2024-05-09T20:06:30.437Z,4.58
2024-05-09T20:09:01.251Z,4.66
2024-05-09T20:11:29.353Z,4.63
2024-05-09T20:14:00.130Z,4.55
2024-05-09T20:16:31.017Z,4.56
2024-05-09T20:19:02.056Z,4.52
2024-05-09T20:21:30.611Z,4.44
2024-05-09T20:24:01.369Z,4.39
2024-05-09T20:26:31.022Z,4.30
2024-05-09T20:29:01.814Z,4.29
2024-05-09T20:31:32.643Z,4.26
2024-05-09T20:34:03.428Z,4.21
2024-05-09T20:36:31.677Z,4.15
2024-05-09T20:39:05.286Z,4.00
2024-05-09T20:41:35.806Z,4.07
2024-05-09T20:44:07.389Z,4.03
2024-05-09T20:46:38.184Z,4.00
2024-05-09T20:49:09.117Z,3.94
2024-05-09T20:51:37.539Z,3.79
2024-05-09T20:54:08.293Z,3.83
2024-05-09T20:56:36.401Z,3.65
2024-05-09T20:59:07.111Z,3.77
2024-05-09T21:01:38.076Z,3.61
2024-05-09T21:04:09.454Z,3.59
2024-05-09T21:06:37.667Z,3.67
2024-05-09T21:09:09.624Z,3.65
2024-05-09T21:11:37.708Z,3.50
2024-05-09T21:14:08.402Z,3.58
2024-05-09T21:16:39.284Z,3.56
2024-05-09T21:19:10.290Z,3.53
2024-05-09T21:21:41.546Z,3.44
2024-05-09T21:24:12.296Z,3.48
2024-05-09T21:26:40.449Z,3.46
2024-05-09T21:29:11.919Z,3.35
2024-05-09T21:31:42.654Z,3.40
2024-05-09T21:34:13.410Z,3.40
2024-05-09T21:36:42.179Z,3.38
2024-05-09T21:39:12.945Z,3.32
2024-05-09T21:41:41.164Z,3.35
2024-05-09T21:44:12.160Z,3.23
2024-05-09T21:46:43.117Z,3.31
2024-05-09T21:49:14.396Z,3.28
2024-05-09T21:51:42.575Z,3.24
2024-05-09T21:54:13.907Z,3.22
2024-05-09T21:56:42.212Z,3.21
2024-05-09T21:59:12.896Z,3.16
2024-05-09T22:01:43.760Z,3.15
2024-05-09T22:04:14.595Z,3.12
2024-05-09T22:06:42.745Z,3.16
2024-05-09T22:09:13.634Z,3.15
2024-05-09T22:11:41.855Z,3.12
2024-05-09T22:14:12.505Z,3.17
2024-05-09T22:16:43.843Z,3.09
2024-05-09T22:19:14.745Z,3.10
2024-05-09T22:21:42.895Z,3.17
2024-05-09T22:24:13.668Z,3.15
2024-05-09T22:26:41.633Z,3.19
2024-05-09T22:29:12.528Z,3.12
2024-05-09T22:31:43.270Z,3.25
2024-05-09T22:34:14.312Z,3.22
2024-05-09T22:36:42.488Z,3.31
2024-05-09T22:39:13.204Z,3.32
2024-05-09T22:41:41.391Z,3.35
2024-05-09T22:44:12.078Z,3.36
2024-05-09T22:46:40.174Z,3.37
2024-05-09T22:49:13.811Z,3.27
2024-05-09T22:51:42.041Z,3.23
2024-05-09T22:54:12.788Z,3.40
2024-05-09T22:56:40.946Z,3.42
2024-05-09T22:59:11.593Z,3.35
2024-05-09T23:01:39.830Z,3.44
2024-05-09T23:04:13.372Z,3.46
2024-05-09T23:06:41.737Z,3.47
2024-05-09T23:09:12.406Z,3.49
2024-05-09T23:11:41.991Z,3.51
2024-05-09T23:14:14.401Z,3.38
2024-05-09T23:16:42.661Z,3.50
2024-05-09T23:19:16.109Z,3.57
2024-05-09T23:21:44.232Z,3.57
2024-05-09T23:24:15.117Z,3.57
2024-05-09T23:26:43.516Z,3.51
2024-05-09T23:29:14.198Z,3.43
2024-05-09T23:31:42.269Z,3.54
2024-05-09T23:34:15.950Z,3.57
2024-05-09T23:36:44.206Z,3.63
2024-05-09T23:39:14.994Z,3.65
2024-05-09T23:41:43.037Z,3.64
2024-05-09T23:44:13.735Z,3.62
2024-05-09T23:46:41.883Z,3.32
2024-05-09T23:49:13.442Z,3.42
2024-05-09T23:51:44.480Z,3.65
2024-05-09T23:54:15.279Z,3.66
2024-05-09T23:56:43.291Z,3.67
2024-05-09T23:59:13.947Z,3.64
